Time;durP1;ratioP1;P1;durP2;ratioP2;P2;SDS_P1;SDS_P2;PMS_P1;PMS_P2;Temp;Humidity;BMP_temperature;BMP_pressure;BME280_temperature;BME280_humidity;BME280_pressure;Samples;Min_cycle;Max_cycle;Signal;HPM_P1;HPM_P2
2021/07/19 00:00:27;;;;;;;12.57;4.93;;;20.20;97.30;;;;;;5011010;28;20316;-84
2021/07/19 00:02:54;;;;;;;11.20;4.87;;;20.10;97.30;;;;;;4994792;28;20228;-82
2021/07/19 00:05:22;;;;;;;11.90;4.90;;;20.10;97.30;;;;;;4994663;28;20445;-84
2021/07/19 00:07:48;;;;;;;8.17;4.70;;;20.10;97.30;;;;;;4994405;28;20417;-84
2021/07/19 00:10:15;;;;;;;8.07;4.40;;;20.10;97.30;;;;;;5010660;28;20432;-84
2021/07/19 00:12:42;;;;;;;10.10;4.87;;;20.00;97.30;;;;;;4994042;28;20433;-84
2021/07/19 00:15:15;;;;;;;7.03;4.20;;;20.00;97.30;;;;;;4994726;28;20445;-84
2021/07/19 00:17:42;;;;;;;8.30;4.37;;;19.90;97.30;;;;;;4994749;28;20421;-84
2021/07/19 00:20:09;;;;;;;9.07;4.73;;;19.90;97.30;;;;;;4996344;28;20421;-84
2021/07/19 00:22:34;;;;;;;7.73;5.00;;;19.80;97.30;;;;;;5010955;28;20479;-84
2021/07/19 00:25:00;;;;;;;9.30;5.20;;;19.80;97.30;;;;;;4995859;28;20464;-84
2021/07/19 00:27:25;;;;;;;9.53;4.87;;;19.80;97.30;;;;;;4994907;28;20182;-84
2021/07/19 00:29:51;;;;;;;9.17;5.03;;;19.80;97.30;;;;;;5010881;28;20186;-87
2021/07/19 00:32:16;;;;;;;8.70;4.47;;;19.70;97.30;;;;;;4995934;28;20182;-85
2021/07/19 00:34:42;;;;;;;11.63;5.53;;;19.70;97.30;;;;;;4996126;28;20686;-85
2021/07/19 00:37:07;;;;;;;7.50;4.30;;;19.70;97.30;;;;;;5012384;28;20189;-85
2021/07/19 00:39:33;;;;;;;8.07;4.00;;;19.60;97.30;;;;;;4995402;28;20233;-85
2021/07/19 00:41:59;;;;;;;20.93;5.20;;;19.60;97.30;;;;;;4996185;28;20188;-85
2021/07/19 00:44:25;;;;;;;11.73;4.30;;;19.50;97.30;;;;;;5000229;28;20691;-85
2021/07/19 00:46:52;;;;;;;11.60;5.10;;;19.50;97.30;;;;;;5003290;28;20178;-86
2021/07/19 00:49:19;;;;;;;7.80;4.07;;;19.40;97.30;;;;;;4985956;28;20185;-85
2021/07/19 00:51:45;;;;;;;8.93;4.70;;;19.40;97.30;;;;;;4993910;28;20425;-85
2021/07/19 00:54:12;;;;;;;9.43;4.37;;;19.30;97.30;;;;;;4993919;28;20818;-86
2021/07/19 00:56:38;;;;;;;7.47;4.77;;;19.30;97.30;;;;;;4993831;28;20174;-85
2021/07/19 00:59:06;;;;;;;9.03;4.50;;;19.20;97.30;;;;;;4993616;28;20604;-85
2021/07/19 01:01:33;;;;;;;5.67;4.13;;;19.10;97.30;;;;;;4993111;28;20424;-86
2021/07/19 01:04:01;;;;;;;6.87;3.97;;;19.10;97.30;;;;;;4992614;28;20475;-85
2021/07/19 01:06:29;;;;;;;7.33;3.60;;;19.10;97.30;;;;;;4993082;28;20425;-85
2021/07/19 01:09:01;;;;;;;10.77;5.27;;;19.00;97.30;;;;;;4993465;28;20827;-88
2021/07/19 01:11:26;;;;;;;4.00;3.40;;;19.00;97.30;;;;;;4995056;28;20436;-83
2021/07/19 01:13:52;;;;;;;5.93;4.07;;;19.00;97.30;;;;;;4993721;28;20784;-83
2021/07/19 01:16:18;;;;;;;5.83;3.77;;;19.00;97.30;;;;;;4993842;28;20186;-84
2021/07/19 01:18:44;;;;;;;9.57;4.83;;;18.90;97.30;;;;;;5009218;28;20193;-84
2021/07/19 01:21:37;;;;;;;6.00;3.87;;;18.90;97.30;;;;;;4993607;28;20213;-84
2021/07/19 01:24:24;;;;;;;8.00;4.13;;;19.00;97.30;;;;;;4993796;28;20488;-84
2021/07/19 01:27:16;;;;;;;6.70;4.30;;;19.00;97.30;;;;;;4993802;28;20429;-85
2021/07/19 01:29:42;;;;;;;9.30;4.40;;;19.00;97.30;;;;;;4975272;28;20406;-85
2021/07/19 01:32:09;;;;;;;6.63;4.37;;;18.90;97.30;;;;;;4993833;28;20858;-85
2021/07/19 01:34:36;;;;;;;10.87;4.50;;;18.90;97.30;;;;;;4994816;28;20437;-85
2021/07/19 01:37:04;;;;;;;10.63;4.57;;;18.90;97.30;;;;;;4994411;28;20441;-85
2021/07/19 01:39:35;;;;;;;11.20;4.37;;;18.90;97.30;;;;;;4996010;28;20421;-84
2021/07/19 01:42:02;;;;;;;10.30;5.13;;;18.80;97.30;;;;;;4993927;28;20839;-87
2021/07/19 01:44:28;;;;;;;7.00;4.70;;;18.80;97.30;;;;;;4994435;28;20534;-85
2021/07/19 01:46:57;;;;;;;7.17;4.50;;;18.70;97.30;;;;;;4993400;28;20993;-84
2021/07/19 01:49:23;;;;;;;9.70;5.10;;;18.70;97.30;;;;;;4974649;28;20418;-85
2021/07/19 01:51:50;;;;;;;7.13;4.70;;;18.70;97.30;;;;;;4986884;28;20516;-85
2021/07/19 01:54:16;;;;;;;10.00;4.97;;;18.70;97.30;;;;;;4992804;28;20943;-84
2021/07/19 01:56:43;;;;;;;9.70;4.40;;;18.60;97.30;;;;;;4993688;28;20463;-85
2021/07/19 01:59:10;;;;;;;7.43;4.80;;;18.50;97.30;;;;;;5008889;28;20173;-84
2021/07/19 02:01:39;;;;;;;9.53;4.80;;;18.50;97.30;;;;;;4992171;28;20839;-85
2021/07/19 02:04:05;;;;;;;8.37;4.93;;;18.50;97.30;;;;;;4992370;28;20562;-84
2021/07/19 02:06:31;;;;;;;9.63;5.13;;;18.40;97.30;;;;;;4993627;28;20413;-85
2021/07/19 02:09:03;;;;;;;9.57;5.53;;;18.30;97.30;;;;;;4992345;28;20428;-84
2021/07/19 02:11:30;;;;;;;13.20;5.10;;;18.20;97.30;;;;;;4993364;28;20436;-85
2021/07/19 02:13:57;;;;;;;19.50;8.10;;;18.20;97.30;;;;;;4989882;28;20426;-85
2021/07/19 02:16:24;;;;;;;12.80;6.80;;;18.10;97.30;;;;;;4998602;28;20440;-85
2021/07/19 02:18:51;;;;;;;11.50;6.70;;;18.10;97.30;;;;;;4993871;28;20425;-85
2021/07/19 02:21:20;;;;;;;11.53;6.90;;;18.10;97.30;;;;;;4994843;28;20421;-84
2021/07/19 02:23:46;;;;;;;10.27;7.97;;;18.10;97.30;;;;;;4994498;28;20882;-85
2021/07/19 02:26:13;;;;;;;15.97;7.77;;;18.10;97.30;;;;;;4995216;28;20464;-84
2021/07/19 02:28:39;;;;;;;16.37;8.10;;;18.10;97.30;;;;;;5031574;28;20440;-85
2021/07/19 02:31:06;;;;;;;15.47;8.63;;;18.10;97.30;;;;;;5022327;28;20487;-85
2021/07/19 02:33:34;;;;;;;21.27;8.87;;;18.10;97.30;;;;;;4994764;28;20405;-85
2021/07/19 02:36:01;;;;;;;20.63;8.77;;;18.00;97.30;;;;;;4994025;28;20472;-85
2021/07/19 02:38:28;;;;;;;12.37;7.77;;;18.00;97.30;;;;;;4994749;28;20421;-85
2021/07/19 02:40:54;;;;;;;12.07;7.70;;;18.00;97.30;;;;;;4993681;28;20425;-85
2021/07/19 02:43:25;;;;;;;15.57;8.03;;;17.90;97.30;;;;;;4994242;28;20445;-85
2021/07/19 02:45:53;;;;;;;11.93;7.67;;;17.90;97.30;;;;;;4992320;28;20455;-84
2021/07/19 02:48:20;;;;;;;10.20;7.03;;;17.90;97.30;;;;;;5007687;28;20468;-84
2021/07/19 02:50:48;;;;;;;13.97;7.43;;;17.90;97.30;;;;;;4992124;28;20417;-85
2021/07/19 02:53:15;;;;;;;13.20;7.20;;;17.90;97.30;;;;;;4994239;28;20456;-84
2021/07/19 02:55:42;;;;;;;13.67;7.43;;;17.90;97.30;;;;;;4986001;28;20507;-84
2021/07/19 02:58:16;;;;;;;14.83;6.20;;;17.90;97.30;;;;;;4976693;28;20418;-84
2021/07/19 03:00:42;;;;;;;11.17;6.43;;;17.80;97.30;;;;;;4978589;28;20422;-85
2021/07/19 03:03:13;;;;;;;11.60;6.40;;;17.80;97.30;;;;;;4995506;28;20461;-85
2021/07/19 03:05:42;;;;;;;11.67;6.50;;;17.80;97.30;;;;;;4995295;28;20550;-84
2021/07/19 03:08:11;;;;;;;10.13;6.73;;;17.80;97.30;;;;;;4996020;28;20645;-84
2021/07/19 03:10:39;;;;;;;11.03;7.30;;;17.80;97.30;;;;;;4997095;28;20409;-84
2021/07/19 03:13:09;;;;;;;11.03;6.60;;;17.80;97.30;;;;;;4996348;28;20975;-84
2021/07/19 03:15:37;;;;;;;13.97;7.10;;;17.80;97.30;;;;;;5012810;28;20449;-84
2021/07/19 03:18:06;;;;;;;11.00;7.30;;;17.80;97.30;;;;;;4996307;28;20429;-84
2021/07/19 03:20:36;;;;;;;13.60;7.30;;;17.80;97.30;;;;;;4996075;28;20420;-84
2021/07/19 03:23:06;;;;;;;15.03;7.27;;;17.80;97.30;;;;;;4995880;28;20436;-83
2021/07/19 03:25:32;;;;;;;13.90;7.47;;;17.80;97.30;;;;;;4996569;28;20484;-84
2021/07/19 03:27:59;;;;;;;16.43;7.93;;;17.80;97.30;;;;;;4996950;28;20444;-84
2021/07/19 03:30:26;;;;;;;14.10;6.73;;;17.80;97.30;;;;;;4997648;28;20424;-84
2021/07/19 03:32:52;;;;;;;18.63;7.30;;;17.80;97.30;;;;;;4998252;28;20427;-84
2021/07/19 03:35:21;;;;;;;16.97;7.50;;;17.80;97.30;;;;;;4998263;28;20468;-85
2021/07/19 03:37:47;;;;;;;12.77;7.33;;;17.80;97.30;;;;;;4997069;28;20519;-86
2021/07/19 03:40:16;;;;;;;14.80;6.90;;;17.70;97.30;;;;;;4996798;28;20484;-85
2021/07/19 03:42:42;;;;;;;14.47;7.03;;;17.70;97.30;;;;;;4996218;28;20795;-85
2021/07/19 03:45:11;;;;;;;13.20;7.10;;;17.70;97.30;;;;;;5011492;28;20515;-86
2021/07/19 03:47:37;;;;;;;15.10;8.10;;;17.70;97.30;;;;;;4995294;28;20799;-85
2021/07/19 03:50:05;;;;;;;13.40;8.00;;;17.60;97.30;;;;;;4996547;28;20484;-85
2021/07/19 03:52:31;;;;;;;13.80;8.13;;;17.50;97.30;;;;;;4994521;28;20178;-85
2021/07/19 03:54:58;;;;;;;15.17;8.20;;;17.50;97.30;;;;;;5010878;28;20445;-85
2021/07/19 03:57:25;;;;;;;22.13;9.40;;;17.40;97.30;;;;;;4991811;28;20935;-85
2021/07/19 03:59:51;;;;;;;13.73;7.60;;;17.40;97.30;;;;;;4988113;28;20422;-86
2021/07/19 04:02:18;;;;;;;11.87;7.60;;;17.40;97.30;;;;;;4988216;28;20421;-84
2021/07/19 04:04:50;;;;;;;18.50;8.20;;;17.40;97.30;;;;;;5008251;28;20213;-85
2021/07/19 04:07:17;;;;;;;19.00;8.20;;;17.40;97.30;;;;;;4996506;28;20421;-84
2021/07/19 04:09:43;;;;;;;17.70;8.93;;;17.40;97.30;;;;;;4995423;28;20864;-84
2021/07/19 04:12:11;;;;;;;14.50;7.40;;;17.40;97.30;;;;;;5011602;28;20429;-84
2021/07/19 04:14:36;;;;;;;17.00;7.23;;;17.30;97.30;;;;;;4996578;28;20441;-84
2021/07/19 04:17:04;;;;;;;14.73;7.30;;;17.20;97.30;;;;;;4996345;28;20424;-85
2021/07/19 04:21:58;;;;;;;13.80;6.70;;;17.10;97.30;;;;;;4993631;28;20525;-85
2021/07/19 04:24:24;;;;;;;19.43;7.63;;;17.10;97.30;;;;;;4993097;28;20461;-85
2021/07/19 04:26:51;;;;;;;14.63;7.20;;;17.10;97.30;;;;;;4993615;28;20440;-84
2021/07/19 04:29:20;;;;;;;16.53;7.23;;;17.00;97.30;;;;;;4993700;28;20633;-86
2021/07/19 04:31:55;;;;;;;14.07;7.60;;;17.00;97.30;;;;;;4993449;28;21009;-86
2021/07/19 04:34:34;;;;;;;18.27;7.57;;;17.00;97.30;;;;;;4992933;28;20431;-85
2021/07/19 04:37:05;;;;;;;13.37;6.80;;;17.00;97.30;;;;;;4992837;28;20869;-85
2021/07/19 04:39:31;;;;;;;18.23;7.30;;;16.90;97.30;;;;;;4991016;28;20508;-85
2021/07/19 04:41:59;;;;;;;17.50;6.80;;;16.80;97.30;;;;;;4992206;28;20461;-85
2021/07/19 04:44:24;;;;;;;13.73;6.83;;;16.80;97.30;;;;;;4994077;28;20212;-84
2021/07/19 04:46:50;;;;;;;15.80;7.07;;;16.70;97.30;;;;;;4985947;28;20432;-85
2021/07/19 04:49:17;;;;;;;20.00;7.17;;;16.70;97.30;;;;;;4986665;28;20178;-85
2021/07/19 04:51:47;;;;;;;10.27;5.83;;;16.70;97.30;;;;;;4987453;28;20185;-85
2021/07/19 04:54:27;;;;;;;19.67;7.03;;;16.60;97.30;;;;;;4991962;28;20444;-85
2021/07/19 04:56:59;;;;;;;14.20;6.33;;;16.60;97.30;;;;;;4993925;28;20847;-85
2021/07/19 04:59:29;;;;;;;13.10;6.70;;;16.60;97.30;;;;;;4994800;28;20440;-85
2021/07/19 05:01:56;;;;;;;15.80;7.60;;;16.60;97.30;;;;;;4983989;28;20441;-85
2021/07/19 05:04:25;;;;;;;21.40;7.10;;;16.60;97.30;;;;;;4993706;28;20507;-85
2021/07/19 05:06:52;;;;;;;19.40;7.50;;;16.60;97.30;;;;;;4994829;28;20425;-85
2021/07/19 05:09:21;;;;;;;21.27;6.63;;;16.60;97.30;;;;;;4994737;28;20425;-85
2021/07/19 05:11:47;;;;;;;13.53;7.03;;;16.60;97.30;;;;;;4996278;28;20451;-85
2021/07/19 05:14:14;;;;;;;18.23;7.13;;;16.60;97.30;;;;;;4994834;28;20846;-85
2021/07/19 05:16:40;;;;;;;13.03;5.57;;;16.60;97.30;;;;;;4994486;28;20428;-85
2021/07/19 05:19:06;;;;;;;16.23;6.07;;;16.60;97.30;;;;;;4994622;28;20432;-85
2021/07/19 05:21:33;;;;;;;12.47;5.40;;;16.60;97.30;;;;;;4993326;28;20571;-86
2021/07/19 05:23:58;;;;;;;12.63;4.93;;;16.60;97.30;;;;;;4993244;28;20288;-87
2021/07/19 05:26:24;;;;;;;13.50;5.73;;;16.60;97.30;;;;;;4992680;28;20463;-86
2021/07/19 05:28:49;;;;;;;14.30;5.10;;;16.60;97.30;;;;;;4992035;28;20690;-86
2021/07/19 05:31:15;;;;;;;16.63;5.90;;;16.60;97.30;;;;;;4990926;28;20201;-86
2021/07/19 05:33:40;;;;;;;19.50;5.40;;;16.70;97.30;;;;;;4986933;28;20536;-86
2021/07/19 05:36:08;;;;;;;21.13;5.80;;;16.70;97.30;;;;;;4971920;28;20210;-85
2021/07/19 05:38:34;;;;;;;15.87;5.93;;;16.70;97.30;;;;;;4985624;28;20190;-85
2021/07/19 05:40:59;;;;;;;12.60;4.83;;;16.70;97.30;;;;;;4990443;28;20463;-86
2021/07/19 05:43:25;;;;;;;30.17;5.53;;;16.70;97.30;;;;;;4991669;28;20714;-84
2021/07/19 05:45:52;;;;;;;13.23;5.17;;;16.70;97.30;;;;;;4988189;28;20648;-86
2021/07/19 05:48:17;;;;;;;16.87;5.30;;;16.70;97.30;;;;;;4979569;28;20505;-85
2021/07/19 05:50:43;;;;;;;13.43;5.40;;;16.70;97.30;;;;;;4976250;28;20209;-86
2021/07/19 05:53:10;;;;;;;19.93;4.77;;;16.70;97.30;;;;;;4981860;28;20205;-86
2021/07/19 05:55:36;;;;;;;13.67;5.70;;;16.70;97.30;;;;;;4984262;28;20166;-85
2021/07/19 05:58:02;;;;;;;15.53;5.03;;;16.70;97.30;;;;;;4984215;28;20461;-84
2021/07/19 06:00:28;;;;;;;20.93;5.37;;;16.80;97.30;;;;;;4981140;28;20205;-85
2021/07/19 06:02:53;;;;;;;18.73;5.20;;;16.80;97.30;;;;;;4982141;28;20421;-85
2021/07/19 06:05:19;;;;;;;18.10;5.30;;;16.80;97.30;;;;;;4994353;28;20178;-85
2021/07/19 06:07:45;;;;;;;16.47;5.30;;;16.80;97.30;;;;;;4993316;28;20170;-84
2021/07/19 06:10:12;;;;;;;13.60;4.50;;;16.80;96.70;;;;;;4992766;28;20190;-84
2021/07/19 06:12:39;;;;;;;15.67;5.43;;;16.80;96.20;;;;;;4993412;28;20479;-84
2021/07/19 06:15:07;;;;;;;10.67;4.67;;;16.80;96.70;;;;;;4993688;28;20413;-85
2021/07/19 06:17:35;;;;;;;11.57;5.60;;;16.80;96.60;;;;;;4992124;28;20421;-84
2021/07/19 06:20:00;;;;;;;11.87;5.33;;;16.80;96.30;;;;;;4992123;28;20571;-85
2021/07/19 06:22:26;;;;;;;14.93;5.97;;;16.80;96.40;;;;;;4991722;28;20936;-85
2021/07/19 06:24:54;;;;;;;18.80;5.53;;;16.90;97.20;;;;;;4990863;28;20201;-85
2021/07/19 06:27:19;;;;;;;18.97;5.77;;;16.90;97.30;;;;;;4991428;28;20166;-85
2021/07/19 06:29:47;;;;;;;24.47;5.60;;;17.00;96.50;;;;;;4994738;28;20445;-85
2021/07/19 06:32:13;;;;;;;17.97;6.37;;;17.00;96.20;;;;;;4997395;28;20552;-84
2021/07/19 06:34:38;;;;;;;14.40;6.00;;;17.00;95.10;;;;;;4996928;28;20432;-85
2021/07/19 06:37:04;;;;;;;17.17;4.93;;;17.00;95.40;;;;;;4998665;28;20224;-85
2021/07/19 06:39:32;;;;;;;17.53;4.87;;;17.00;95.30;;;;;;4996190;28;20232;-85
2021/07/19 06:41:57;;;;;;;17.73;5.27;;;17.00;95.60;;;;;;4996326;28;20652;-85
2021/07/19 06:44:23;;;;;;;13.37;5.00;;;17.00;94.90;;;;;;4995121;28;20491;-84
2021/07/19 06:46:52;;;;;;;15.00;5.20;;;17.00;95.20;;;;;;4994697;28;20186;-85
2021/07/19 06:49:17;;;;;;;14.57;5.77;;;17.00;95.00;;;;;;4995368;28;20181;-85
2021/07/19 06:51:43;;;;;;;17.50;5.10;;;17.00;94.80;;;;;;4996623;28;20520;-85
2021/07/19 06:54:11;;;;;;;10.80;5.20;;;17.00;94.20;;;;;;4995761;28;20197;-85
2021/07/19 06:56:36;;;;;;;20.53;5.30;;;17.10;94.60;;;;;;4995546;28;20259;-85
2021/07/19 06:59:01;;;;;;;12.33;5.73;;;17.10;94.00;;;;;;4996267;28;20907;-85
2021/07/19 07:01:27;;;;;;;18.00;5.87;;;17.10;94.20;;;;;;4995735;28;20202;-85
2021/07/19 07:03:52;;;;;;;13.20;4.67;;;17.10;93.70;;;;;;4995653;28;20296;-85
2021/07/19 07:06:18;;;;;;;16.57;5.60;;;17.10;94.40;;;;;;4995793;28;20180;-85
2021/07/19 07:08:43;;;;;;;16.50;5.67;;;17.10;93.90;;;;;;4995468;28;20178;-86
2021/07/19 07:11:12;;;;;;;16.73;4.80;;;17.10;93.30;;;;;;4996001;28;20189;-84
2021/07/19 07:13:40;;;;;;;10.40;4.73;;;17.10;93.30;;;;;;4996058;28;20182;-84
2021/07/19 07:16:05;;;;;;;14.63;4.60;;;17.10;93.90;;;;;;4989388;28;20422;-85
2021/07/19 07:18:31;;;;;;;12.50;5.17;;;17.20;94.30;;;;;;4990864;28;21048;-85
2021/07/19 07:20:56;;;;;;;13.43;5.07;;;17.20;95.00;;;;;;4994652;28;20284;-85
2021/07/19 07:23:21;;;;;;;10.47;4.70;;;17.30;95.40;;;;;;4977109;28;20210;-85
2021/07/19 07:25:47;;;;;;;15.80;5.10;;;17.30;93.90;;;;;;4992156;28;20186;-86
2021/07/19 07:28:12;;;;;;;12.27;5.20;;;17.30;93.50;;;;;;4995083;28;20196;-86
2021/07/19 07:30:38;;;;;;;14.63;5.93;;;17.30;93.40;;;;;;4995236;28;20205;-85
2021/07/19 07:33:03;;;;;;;13.50;4.60;;;17.40;95.00;;;;;;4994472;28;20178;-84
2021/07/19 07:35:29;;;;;;;9.93;4.60;;;17.40;93.70;;;;;;4989763;28;20184;-84
2021/07/19 07:37:54;;;;;;;13.63;5.50;;;17.40;94.00;;;;;;4985665;28;20644;-86
2021/07/19 07:40:20;;;;;;;11.20;4.70;;;17.40;92.80;;;;;;4978931;28;20272;-85
2021/07/19 07:42:46;;;;;;;13.00;5.00;;;17.50;92.80;;;;;;4989740;28;20178;-84
2021/07/19 07:45:11;;;;;;;13.37;4.80;;;17.50;93.70;;;;;;4995836;28;20202;-85
2021/07/19 07:47:37;;;;;;;11.80;5.20;;;17.60;94.00;;;;;;4991387;28;20739;-84
2021/07/19 07:50:04;;;;;;;12.97;4.57;;;17.60;94.30;;;;;;4990686;28;20202;-85
2021/07/19 07:52:30;;;;;;;17.13;4.90;;;17.80;94.90;;;;;;4991451;28;20423;-84
2021/07/19 07:54:55;;;;;;;17.73;5.30;;;17.80;93.10;;;;;;4994125;28;20421;-84
2021/07/19 07:57:21;;;;;;;10.37;5.10;;;17.90;93.80;;;;;;4993319;28;20614;-85
2021/07/19 07:59:46;;;;;;;19.47;5.50;;;17.90;93.10;;;;;;4992684;28;20305;-83
2021/07/19 08:02:12;;;;;;;20.27;5.63;;;17.90;92.60;;;;;;4989913;28;20617;-83
2021/07/19 08:04:40;;;;;;;13.90;4.90;;;17.90;93.20;;;;;;4992595;28;20212;-83
2021/07/19 08:07:10;;;;;;;12.87;5.10;;;17.90;93.00;;;;;;4982851;28;20236;-83
2021/07/19 08:09:41;;;;;;;13.87;5.57;;;17.90;92.40;;;;;;4973442;28;20433;-83
2021/07/19 08:12:07;;;;;;;16.47;5.83;;;17.90;92.90;;;;;;4992836;28;20459;-83
2021/07/19 08:14:33;;;;;;;12.63;5.10;;;17.90;93.10;;;;;;4993335;28;20437;-84
2021/07/19 08:17:01;;;;;;;24.10;6.67;;;18.00;93.70;;;;;;4981894;28;20426;-81
2021/07/19 08:19:32;;;;;;;15.73;5.80;;;18.10;92.60;;;;;;4972938;28;20187;-83
2021/07/19 08:21:58;;;;;;;14.30;5.57;;;18.10;92.90;;;;;;4991485;28;20476;-83
2021/07/19 08:24:24;;;;;;;17.23;5.67;;;18.20;92.40;;;;;;4983677;28;20458;-81
2021/07/19 08:26:49;;;;;;;13.40;5.27;;;18.20;92.90;;;;;;4976543;28;20799;-82
2021/07/19 08:29:15;;;;;;;15.03;5.27;;;18.10;93.00;;;;;;4976448;28;20174;-83
2021/07/19 08:31:44;;;;;;;13.80;5.17;;;18.20;93.00;;;;;;4976504;28;20265;-83
2021/07/19 08:34:10;;;;;;;13.70;5.73;;;18.20;93.30;;;;;;4984762;28;20170;-83
2021/07/19 08:36:35;;;;;;;20.63;6.77;;;18.30;93.10;;;;;;4996581;28;20512;-83
2021/07/19 08:39:01;;;;;;;20.33;7.23;;;18.40;94.10;;;;;;4994087;28;20417;-83
2021/07/19 08:41:27;;;;;;;14.53;5.67;;;18.50;93.20;;;;;;4991816;28;20680;-83
2021/07/19 08:43:54;;;;;;;9.50;6.23;;;18.60;94.30;;;;;;4991855;28;20206;-83
2021/07/19 08:46:21;;;;;;;12.10;5.20;;;18.70;94.40;;;;;;4991479;28;20557;-84
2021/07/19 08:48:51;;;;;;;11.43;5.57;;;18.80;92.70;;;;;;4991997;28;20409;-84
2021/07/19 08:51:18;;;;;;;15.40;6.00;;;18.80;92.40;;;;;;4992164;28;20856;-84
2021/07/19 08:53:44;;;;;;;9.37;5.70;;;18.80;92.90;;;;;;4991298;28;20459;-84
2021/07/19 08:56:12;;;;;;;9.70;6.27;;;18.80;93.00;;;;;;4991427;28;20454;-84
2021/07/19 08:58:38;;;;;;;14.40;7.10;;;18.90;92.50;;;;;;4991779;28;20239;-83
2021/07/19 09:01:04;;;;;;;13.00;6.13;;;18.90;91.70;;;;;;4993556;28;20441;-84
2021/07/19 09:03:29;;;;;;;10.47;5.60;;;19.00;91.60;;;;;;4993639;28;20637;-83
2021/07/19 09:05:57;;;;;;;18.90;6.40;;;19.00;91.50;;;;;;4993719;28;20445;-84
2021/07/19 09:08:23;;;;;;;12.73;6.40;;;19.00;91.90;;;;;;4995163;28;20181;-82
2021/07/19 09:10:48;;;;;;;14.50;6.30;;;19.10;92.90;;;;;;4994226;28;20441;-84
2021/07/19 09:13:18;;;;;;;16.27;6.63;;;19.10;90.40;;;;;;4993849;28;20173;-85
2021/07/19 09:15:44;;;;;;;13.10;5.63;;;19.10;90.40;;;;;;4992211;28;20204;-85
2021/07/19 09:18:10;;;;;;;13.93;6.10;;;19.10;90.30;;;;;;4993619;28;20421;-85
2021/07/19 09:20:41;;;;;;;11.10;6.27;;;19.00;89.60;;;;;;4993315;28;20261;-84
2021/07/19 09:23:09;;;;;;;17.10;6.17;;;19.10;88.60;;;;;;4992471;28;20191;-84
2021/07/19 09:25:37;;;;;;;11.50;5.30;;;19.30;87.20;;;;;;4993045;28;20440;-85
2021/07/19 09:28:11;;;;;;;11.50;5.03;;;19.30;86.80;;;;;;4991945;28;20420;-83
2021/07/19 09:30:45;;;;;;;10.13;4.80;;;19.30;87.00;;;;;;4992130;28;20955;-86
2021/07/19 09:33:13;;;;;;;10.73;5.20;;;19.40;87.60;;;;;;4996114;28;20428;-84
2021/07/19 09:35:42;;;;;;;15.00;4.60;;;19.50;87.10;;;;;;5001856;28;20493;-84
2021/07/19 09:38:13;;;;;;;8.10;5.00;;;19.60;87.40;;;;;;4992241;28;20421;-82
2021/07/19 09:40:41;;;;;;;15.10;4.57;;;19.70;86.40;;;;;;4991135;28;20532;-84
2021/07/19 09:43:24;;;;;;;10.30;4.30;;;19.80;85.80;;;;;;4990548;28;20931;-84
2021/07/19 09:46:00;;;;;;;7.47;4.70;;;19.90;86.30;;;;;;4976771;28;20432;-85
2021/07/19 09:48:27;;;;;;;11.80;5.33;;;19.90;85.20;;;;;;4992339;28;20423;-83
2021/07/19 09:50:53;;;;;;;12.13;4.97;;;20.00;85.60;;;;;;4982550;28;20453;-82
2021/07/19 09:53:33;;;;;;;15.40;5.20;;;19.90;85.40;;;;;;4973604;28;20433;-84
2021/07/19 09:56:17;;;;;;;12.20;5.20;;;19.90;85.50;;;;;;4981000;28;20507;-83
2021/07/19 09:58:45;;;;;;;12.00;5.30;;;19.90;85.00;;;;;;4992747;28;20471;-83
2021/07/19 10:01:11;;;;;;;21.57;5.23;;;19.90;87.30;;;;;;4992642;28;20463;-83
2021/07/19 10:03:37;;;;;;;12.17;5.00;;;19.80;85.90;;;;;;4981790;28;20947;-82
2021/07/19 10:06:07;;;;;;;12.53;5.17;;;19.70;85.70;;;;;;4991169;28;20162;-85
2021/07/19 10:08:33;;;;;;;11.83;4.93;;;19.70;86.80;;;;;;4988368;28;20181;-82
2021/07/19 10:11:02;;;;;;;9.93;4.90;;;19.70;86.00;;;;;;4980286;28;20434;-82
2021/07/19 10:13:34;;;;;;;6.77;4.53;;;19.90;86.00;;;;;;4982040;28;20923;-85
2021/07/19 10:16:02;;;;;;;12.50;5.67;;;20.00;85.40;;;;;;4982871;28;20457;-84
2021/07/19 10:18:30;;;;;;;11.00;5.43;;;20.10;86.80;;;;;;4982083;28;20410;-82
2021/07/19 10:20:57;;;;;;;8.20;5.27;;;20.10;85.30;;;;;;4980987;28;20461;-82
2021/07/19 10:23:22;;;;;;;12.33;5.33;;;20.10;86.50;;;;;;4980446;28;20990;-84
2021/07/19 10:25:52;;;;;;;9.77;6.10;;;20.10;87.10;;;;;;4981277;28;20937;-84
2021/07/19 10:28:18;;;;;;;15.37;5.80;;;20.20;85.70;;;;;;4977920;28;20170;-84
2021/07/19 10:30:43;;;;;;;11.07;5.30;;;20.20;85.00;;;;;;5027943;23;20570;-87
2021/07/19 10:33:09;;;;;;;11.60;5.20;;;20.20;86.20;;;;;;5026281;28;20210;-89
2021/07/19 10:35:35;;;;;;;18.23;5.33;;;20.20;87.10;;;;;;5021156;28;20623;-88
2021/07/19 10:38:10;;;;;;;11.80;5.80;;;20.40;86.90;;;;;;5030691;28;20181;-88
2021/07/19 10:40:40;;;;;;;13.00;5.70;;;20.30;85.90;;;;;;5003906;28;20209;-89
2021/07/19 10:43:16;;;;;;;13.13;6.30;;;20.20;85.00;;;;;;5008752;28;20424;-88
2021/07/19 10:45:52;;;;;;;10.80;5.00;;;20.10;85.30;;;;;;4993710;28;20412;-88
2021/07/19 10:48:26;;;;;;;15.37;6.03;;;20.10;86.50;;;;;;4997107;28;20928;-89
2021/07/19 10:51:00;;;;;;;11.80;5.43;;;20.10;86.40;;;;;;5002534;28;20649;-87
2021/07/19 10:53:34;;;;;;;11.77;5.50;;;20.10;85.70;;;;;;5000797;28;20443;-90
2021/07/19 10:56:05;;;;;;;7.80;5.30;;;20.10;85.70;;;;;;4999893;28;20408;-88
2021/07/19 10:58:42;;;;;;;10.40;4.77;;;20.20;86.50;;;;;;5006525;28;20443;-88
2021/07/19 11:01:24;;;;;;;11.97;5.17;;;20.30;84.90;;;;;;4994671;28;20445;-89
2021/07/19 11:03:53;;;;;;;8.20;4.97;;;20.40;87.40;;;;;;4999187;28;20449;-88
2021/07/19 11:06:32;;;;;;;13.40;5.77;;;20.40;85.20;;;;;;5006089;28;20415;-88
2021/07/19 11:09:04;;;;;;;13.70;6.13;;;20.40;85.90;;;;;;4998925;28;20421;-89
2021/07/19 11:11:35;;;;;;;16.67;4.97;;;20.40;84.00;;;;;;4999089;28;20446;-88
2021/07/19 11:14:05;;;;;;;13.20;5.27;;;20.30;85.20;;;;;;4997864;28;20499;-88
2021/07/19 11:16:51;;;;;;;8.30;4.13;;;20.30;85.10;;;;;;5010254;28;20506;-88
2021/07/19 11:19:28;;;;;;;11.80;5.57;;;20.20;83.60;;;;;;5010800;28;20456;-88
2021/07/19 11:22:21;;;;;;;15.87;4.40;;;20.20;86.50;;;;;;5001027;28;20424;-88
2021/07/19 11:24:50;;;;;;;6.93;4.60;;;20.30;86.20;;;;;;4998227;28;20440;-89
2021/07/19 11:27:31;;;;;;;10.90;4.90;;;20.60;86.90;;;;;;5012027;28;20420;-88
2021/07/19 11:30:25;;;;;;;10.63;5.00;;;20.80;85.60;;;;;;5010824;28;20459;-88
2021/07/19 11:32:53;;;;;;;9.83;4.27;;;20.70;83.50;;;;;;5007328;28;20428;-88
2021/07/19 11:35:22;;;;;;;6.03;3.80;;;20.60;85.40;;;;;;5013990;28;20930;-88
2021/07/19 11:37:56;;;;;;;9.70;3.70;;;20.60;85.20;;;;;;5011057;28;20417;-87
2021/07/19 11:40:35;;;;;;;10.30;4.70;;;20.70;83.30;;;;;;4995630;28;20453;-88
2021/07/19 11:43:19;;;;;;;7.77;4.40;;;20.80;84.50;;;;;;5016556;28;20505;-88
2021/07/19 11:45:49;;;;;;;7.23;3.93;;;21.00;84.20;;;;;;5009254;28;20472;-88
2021/07/19 11:48:16;;;;;;;9.60;4.03;;;21.10;84.30;;;;;;4996192;28;20607;-88
2021/07/19 11:50:42;;;;;;;8.20;3.80;;;21.20;82.70;;;;;;4997864;28;20510;-87
2021/07/19 11:53:07;;;;;;;6.87;4.10;;;21.20;83.80;;;;;;4996084;28;20421;-88
2021/07/19 11:55:34;;;;;;;8.47;4.37;;;21.10;83.20;;;;;;5008716;28;20177;-88
2021/07/19 11:58:03;;;;;;;10.43;4.20;;;21.00;83.70;;;;;;5016937;28;20659;-88
2021/07/19 12:00:34;;;;;;;8.90;4.43;;;20.90;83.20;;;;;;5013498;28;20443;-89
2021/07/19 12:03:35;;;;;;;9.67;4.10;;;20.80;83.90;;;;;;4998715;28;20957;-87
2021/07/19 12:06:04;;;;;;;6.87;4.43;;;20.90;83.50;;;;;;5015639;28;20439;-87
2021/07/19 12:08:34;;;;;;;10.53;4.60;;;20.90;85.40;;;;;;5009619;28;20460;-88
2021/07/19 12:11:04;;;;;;;12.73;4.73;;;21.00;83.80;;;;;;5012571;28;20970;-88
2021/07/19 12:13:40;;;;;;;9.30;4.30;;;21.10;84.30;;;;;;5015415;28;20519;-89
2021/07/19 12:16:10;;;;;;;8.70;3.60;;;21.20;83.80;;;;;;5016067;28;20493;-87
2021/07/19 12:18:41;;;;;;;12.67;4.80;;;21.30;82.90;;;;;;5016072;28;20412;-87
2021/07/19 12:21:08;;;;;;;8.17;4.33;;;21.40;82.90;;;;;;5014553;28;20468;-88
2021/07/19 12:23:51;;;;;;;9.47;4.13;;;21.60;82.70;;;;;;5013891;28;20491;-87
2021/07/19 12:26:32;;;;;;;9.80;3.87;;;21.80;84.90;;;;;;5006877;28;20417;-88
2021/07/19 12:29:14;;;;;;;12.27;4.00;;;21.90;83.70;;;;;;5009165;28;20493;-88
2021/07/19 12:31:43;;;;;;;8.00;4.60;;;21.80;82.10;;;;;;5021324;28;20429;-85
2021/07/19 12:34:16;;;;;;;10.00;4.53;;;21.70;85.00;;;;;;5013753;28;20416;-87
2021/07/19 12:36:59;;;;;;;9.70;4.70;;;21.70;84.40;;;;;;5010248;28;20424;-88
2021/07/19 12:39:36;;;;;;;12.60;5.17;;;21.70;83.00;;;;;;5014954;28;20454;-87
2021/07/19 12:42:10;;;;;;;12.63;5.37;;;21.60;82.80;;;;;;5014633;28;20782;-87
2021/07/19 12:44:36;;;;;;;11.97;5.53;;;21.40;83.00;;;;;;5014503;28;20463;-87
2021/07/19 12:47:03;;;;;;;13.33;5.30;;;21.20;83.10;;;;;;5015054;28;20420;-88